Time;durP1;ratioP1;P1;durP2;ratioP2;P2;SDS_P1;SDS_P2;PMS_P1;PMS_P2;Temp;Humidity;BMP_temperature;BMP_pressure;BME280_temperature;BME280_humidity;BME280_pressure;Samples;Min_cycle;Max_cycle;Signal;HPM_P1;HPM_P2
2022/12/15 00:38:56;;;;;;;24.80;12.05;;;;;;;;;;5014555;28;20417;-71
2022/12/15 00:41:22;;;;;;;12.95;7.20;;;;;;;;;;5014775;28;20026;-71
2022/12/15 00:43:49;;;;;;;12.77;7.25;;;;;;;;;;5014517;28;20032;-71
2022/12/15 00:49:00;;;;;;;7.25;5.13;;;;;;;;;;4995348;28;20037;-72
2022/12/15 01:21:44;;;;;;;8.95;5.43;;;;;;;;;;5014068;28;20037;-71
2022/12/15 01:24:10;;;;;;;10.70;4.95;;;;;;;;;;5014272;28;20028;-72
2022/12/15 01:26:37;;;;;;;5.75;3.50;;;;;;;;;;5013953;28;20026;-72
2022/12/15 01:29:03;;;;;;;5.90;3.42;;;;;;;;;;5013881;28;20030;-71
2022/12/15 01:31:30;;;;;;;4.10;2.58;;;;;;;;;;5013759;28;20038;-72
2022/12/15 01:33:56;;;;;;;4.65;2.03;;;;;;;;;;5013726;28;20026;-71
2022/12/15 01:36:23;;;;;;;3.30;2.30;;;;;;;;;;5013929;28;20026;-72
2022/12/15 01:38:49;;;;;;;1.55;1.40;;;;;;;;;;5013588;28;20048;-72
2022/12/15 01:41:15;;;;;;;2.35;1.30;;;;;;;;;;5013665;28;20496;-71
2022/12/15 01:43:41;;;;;;;2.03;1.10;;;;;;;;;;5013315;28;20030;-71
2022/12/15 01:46:12;;;;;;;2.20;1.10;;;;;;;;;;5013893;28;20032;-71
2022/12/15 01:49:04;;;;;;;2.13;1.38;;;;;;;;;;5013907;28;20026;-72
2022/12/15 01:51:39;;;;;;;2.50;1.00;;;;;;;;;;5012395;28;20068;-72
2022/12/15 01:54:05;;;;;;;2.28;1.20;;;;;;;;;;5013636;28;20080;-72
2022/12/15 01:56:33;;;;;;;6.80;1.63;;;;;;;;;;5013226;28;20037;-72
2022/12/15 01:59:01;;;;;;;1.65;1.23;;;;;;;;;;5013959;28;20018;-72
2022/12/15 02:01:27;;;;;;;5.28;1.20;;;;;;;;;;5013395;28;20034;-72
2022/12/15 02:03:53;;;;;;;2.38;1.10;;;;;;;;;;5013101;28;20029;-72
2022/12/15 02:06:21;;;;;;;3.75;1.30;;;;;;;;;;5013460;28;20382;-72
2022/12/15 02:08:48;;;;;;;2.28;1.13;;;;;;;;;;5013056;28;20049;-72
2022/12/15 02:11:24;;;;;;;1.08;0.80;;;;;;;;;;5012836;28;20030;-71
2022/12/15 02:14:01;;;;;;;2.30;0.80;;;;;;;;;;5013176;28;20034;-72
2022/12/15 02:16:45;;;;;;;1.63;0.90;;;;;;;;;;5013133;28;20382;-72
2022/12/15 02:19:30;;;;;;;2.42;1.33;;;;;;;;;;5013131;28;20021;-71
2022/12/15 02:22:15;;;;;;;1.83;0.82;;;;;;;;;;5013025;28;20067;-71
2022/12/15 02:24:44;;;;;;;1.85;0.90;;;;;;;;;;5012837;28;20030;-72
2022/12/15 02:27:11;;;;;;;2.70;0.95;;;;;;;;;;5012717;28;20029;-71
2022/12/15 02:29:37;;;;;;;1.65;0.80;;;;;;;;;;5012859;28;20034;-72
2022/12/15 02:32:06;;;;;;;3.60;1.10;;;;;;;;;;5012573;28;20084;-72
2022/12/15 02:34:38;;;;;;;5.03;0.80;;;;;;;;;;5012814;28;20030;-72
2022/12/15 02:37:07;;;;;;;2.67;1.00;;;;;;;;;;5011607;28;20056;-72
2022/12/15 02:39:33;;;;;;;2.15;1.00;;;;;;;;;;5012955;28;20038;-72
2022/12/15 02:42:00;;;;;;;2.75;1.02;;;;;;;;;;5012349;28;20471;-72
2022/12/15 02:44:30;;;;;;;2.08;1.40;;;;;;;;;;5012644;28;20022;-72
2022/12/15 02:47:12;;;;;;;3.30;1.35;;;;;;;;;;5012556;28;20449;-72
2022/12/15 02:49:41;;;;;;;2.33;1.02;;;;;;;;;;5012726;28;20445;-72
2022/12/15 02:52:27;;;;;;;3.88;1.52;;;;;;;;;;5012379;28;20046;-71
2022/12/15 02:54:53;;;;;;;3.45;0.95;;;;;;;;;;5012503;28;20493;-72
2022/12/15 02:57:24;;;;;;;1.13;0.73;;;;;;;;;;5012800;28;20030;-72
2022/12/15 02:59:54;;;;;;;;;;;;;;;;;;5012943;28;20091;-72
2022/12/15 03:02:22;;;;;;;3.47;0.57;;;;;;;;;;5012585;28;19905;-71
2022/12/15 03:04:49;;;;;;;1.48;1.05;;;;;;;;;;5012383;28;20036;-71
2022/12/15 03:07:15;;;;;;;2.22;0.77;;;;;;;;;;5012737;28;20032;-72
2022/12/15 03:09:42;;;;;;;3.55;1.05;;;;;;;;;;5012078;28;20018;-71
2022/12/15 03:12:09;;;;;;;4.90;0.90;;;;;;;;;;5012235;28;20068;-72
2022/12/15 03:14:35;;;;;;;3.75;1.27;;;;;;;;;;5012431;28;20029;-71
2022/12/15 03:17:03;;;;;;;3.08;0.85;;;;;;;;;;5012354;28;20025;-72
2022/12/15 03:19:29;;;;;;;2.15;0.80;;;;;;;;;;5012176;28;20025;-72
2022/12/15 03:21:55;;;;;;;2.85;0.90;;;;;;;;;;5012710;28;20109;-71
2022/12/15 03:24:22;;;;;;;5.03;0.93;;;;;;;;;;5011945;28;20363;-71
2022/12/15 03:26:48;;;;;;;1.48;0.73;;;;;;;;;;5012465;28;20034;-71
2022/12/15 03:29:16;;;;;;;2.75;1.20;;;;;;;;;;5012152;28;20393;-72
2022/12/15 03:31:43;;;;;;;1.67;0.65;;;;;;;;;;5012151;28;20457;-72
2022/12/15 03:34:10;;;;;;;2.63;0.85;;;;;;;;;;5012026;28;20018;-72
2022/12/15 03:36:36;;;;;;;0.70;0.70;;;;;;;;;;5014181;28;20034;-71
2022/12/15 03:39:03;;;;;;;0.82;0.70;;;;;;;;;;5015676;28;20046;-72
2022/12/15 03:41:29;;;;;;;2.25;0.82;;;;;;;;;;5016061;28;20022;-72
2022/12/15 03:43:56;;;;;;;1.65;0.85;;;;;;;;;;5015910;28;20034;-72
2022/12/15 03:46:22;;;;;;;2.05;0.50;;;;;;;;;;5016083;28;20044;-72
2022/12/15 03:48:49;;;;;;;3.00;0.80;;;;;;;;;;5015689;28;20069;-72
2022/12/15 03:51:15;;;;;;;3.28;0.70;;;;;;;;;;5015946;28;20030;-72
2022/12/15 03:53:42;;;;;;;4.25;0.90;;;;;;;;;;5015693;28;20030;-72
2022/12/15 03:56:08;;;;;;;3.92;1.20;;;;;;;;;;5015726;28;20075;-72
2022/12/15 03:58:34;;;;;;;3.33;1.20;;;;;;;;;;5015914;28;20034;-72
2022/12/15 04:01:11;;;;;;;2.55;1.27;;;;;;;;;;5015844;28;20028;-71
2022/12/15 04:03:37;;;;;;;1.92;0.73;;;;;;;;;;5015575;28;20034;-72
2022/12/15 04:06:04;;;;;;;1.42;0.95;;;;;;;;;;5015484;28;20036;-71
2022/12/15 04:08:30;;;;;;;2.65;1.05;;;;;;;;;;5015256;28;20025;-71
2022/12/15 04:10:56;;;;;;;1.63;1.00;;;;;;;;;;5014052;28;20033;-72
2022/12/15 04:13:22;;;;;;;1.98;0.77;;;;;;;;;;5015190;28;20037;-71
2022/12/15 04:15:49;;;;;;;2.50;0.80;;;;;;;;;;5015490;28;20021;-72
2022/12/15 04:18:15;;;;;;;2.00;0.95;;;;;;;;;;5015146;28;20397;-71
2022/12/15 04:20:41;;;;;;;1.33;0.80;;;;;;;;;;5015292;28;20402;-71
2022/12/15 04:23:08;;;;;;;1.77;0.90;;;;;;;;;;5014956;28;20048;-72
2022/12/15 05:31:50;;;;;;;1.95;1.02;;;;;;;;;;5013866;28;20390;-71
2022/12/15 05:34:37;;;;;;;1.58;0.73;;;;;;;;;;5013592;28;20033;-72
2022/12/15 05:37:06;;;;;;;2.90;0.80;;;;;;;;;;5013947;28;20494;-72
2022/12/15 05:39:33;;;;;;;6.18;1.17;;;;;;;;;;5013762;28;20030;-72
2022/12/15 05:41:59;;;;;;;2.03;0.85;;;;;;;;;;5013691;28;20038;-72
2022/12/15 05:44:26;;;;;;;2.17;0.60;;;;;;;;;;5013873;28;20032;-71
2022/12/15 05:46:52;;;;;;;1.15;0.65;;;;;;;;;;5013390;28;20512;-72
2022/12/15 05:49:18;;;;;;;2.45;0.70;;;;;;;;;;5013405;28;20048;-72
2022/12/15 05:51:46;;;;;;;1.85;1.30;;;;;;;;;;5013575;28;20060;-72
2022/12/15 05:54:16;;;;;;;2.25;1.20;;;;;;;;;;5013472;28;20490;-72
2022/12/15 05:56:43;;;;;;;1.60;0.93;;;;;;;;;;5013392;28;20034;-71
2022/12/15 05:59:10;;;;;;;0.73;0.60;;;;;;;;;;5013377;28;20026;-71
2022/12/15 06:01:36;;;;;;;3.38;0.98;;;;;;;;;;5013384;28;20048;-72
2022/12/15 06:04:03;;;;;;;0.90;0.80;;;;;;;;;;5013192;28;20018;-72
2022/12/15 06:06:29;;;;;;;2.75;1.33;;;;;;;;;;5013304;28;20033;-71
2022/12/15 06:08:56;;;;;;;2.92;0.80;;;;;;;;;;5013403;28;20026;-70
2022/12/15 06:11:22;;;;;;;2.22;1.15;;;;;;;;;;5013128;28;20028;-70
2022/12/15 06:13:49;;;;;;;1.00;0.70;;;;;;;;;;5013077;28;20030;-71
2022/12/15 06:16:17;;;;;;;1.08;0.85;;;;;;;;;;5013522;28;20028;-72
2022/12/15 06:18:45;;;;;;;1.58;0.90;;;;;;;;;;5012713;28;20497;-72
2022/12/15 06:21:13;;;;;;;2.88;1.67;;;;;;;;;;5012240;28;20028;-72
2022/12/15 06:23:40;;;;;;;1.95;0.80;;;;;;;;;;5013403;28;20026;-72
2022/12/15 06:26:09;;;;;;;8.07;5.18;;;;;;;;;;5013181;28;20026;-72
2022/12/15 06:28:35;;;;;;;7.53;4.18;;;;;;;;;;5012943;28;20025;-71
2022/12/15 06:31:02;;;;;;;7.87;4.30;;;;;;;;;;5012818;28;20072;-71
2022/12/15 06:33:29;;;;;;;2.80;1.70;;;;;;;;;;5012633;28;20064;-70
2022/12/15 06:35:58;;;;;;;19.35;10.60;;;;;;;;;;5012847;28;20014;-71
2022/12/15 06:38:27;;;;;;;3.75;2.38;;;;;;;;;;5012978;28;20034;-71
2022/12/15 06:40:57;;;;;;;1.92;1.50;;;;;;;;;;5012629;28;20026;-72
2022/12/15 06:43:24;;;;;;;2.33;1.33;;;;;;;;;;5012639;28;20026;-71
2022/12/15 06:45:50;;;;;;;2.83;1.85;;;;;;;;;;5011402;28;20026;-72
2022/12/15 06:48:17;;;;;;;3.20;1.95;;;;;;;;;;5012134;28;20379;-71
2022/12/15 06:50:44;;;;;;;6.13;3.05;;;;;;;;;;5012600;28;20088;-72
2022/12/15 06:53:11;;;;;;;2.25;1.88;;;;;;;;;;5012428;28;20038;-72
2022/12/15 06:55:37;;;;;;;2.75;1.67;;;;;;;;;;5012810;28;20026;-71
2022/12/15 06:58:04;;;;;;;1.90;1.35;;;;;;;;;;5012446;28;20079;-72
2022/12/15 07:00:30;;;;;;;1.88;1.30;;;;;;;;;;5012245;28;20496;-71
2022/12/15 07:02:57;;;;;;;3.08;2.13;;;;;;;;;;5012592;28;20018;-71
2022/12/15 07:05:23;;;;;;;5.82;2.78;;;;;;;;;;5012373;28;20032;-71
2022/12/15 07:07:51;;;;;;;2.17;1.30;;;;;;;;;;5012473;28;20032;-71
2022/12/15 07:10:17;;;;;;;2.55;1.40;;;;;;;;;;5011779;28;20483;-72
2022/12/15 07:12:44;;;;;;;2.72;0.90;;;;;;;;;;5012193;28;20030;-72
2022/12/15 07:15:10;;;;;;;1.40;1.00;;;;;;;;;;5012294;28;20032;-71
2022/12/15 07:17:37;;;;;;;2.05;1.40;;;;;;;;;;5012007;28;20051;-72
2022/12/15 07:20:04;;;;;;;2.40;1.60;;;;;;;;;;5012371;28;20048;-72
2022/12/15 07:22:31;;;;;;;4.25;1.40;;;;;;;;;;5012030;28;20040;-72
2022/12/15 07:24:57;;;;;;;7.95;3.08;;;;;;;;;;5009119;28;20030;-73
2022/12/15 07:27:24;;;;;;;6.82;4.32;;;;;;;;;;5009137;28;20415;-73
2022/12/15 07:29:51;;;;;;;4.72;1.55;;;;;;;;;;5030440;28;20033;-73
2022/12/15 07:32:17;;;;;;;4.47;1.88;;;;;;;;;;5012945;28;20040;-73
2022/12/15 07:34:44;;;;;;;1.40;0.80;;;;;;;;;;5017221;28;20020;-73
2022/12/15 07:37:10;;;;;;;1.13;0.52;;;;;;;;;;5010333;28;20041;-72
2022/12/15 07:39:36;;;;;;;2.15;1.00;;;;;;;;;;5019957;28;20030;-73
2022/12/15 07:42:03;;;;;;;5.07;1.40;;;;;;;;;;5015349;28;20032;-73
2022/12/15 07:44:30;;;;;;;4.47;1.70;;;;;;;;;;5018785;28;20020;-73
2022/12/15 07:46:57;;;;;;;4.07;1.90;;;;;;;;;;5018795;28;20038;-73
2022/12/15 07:49:23;;;;;;;4.20;2.13;;;;;;;;;;5006782;28;20022;-73
2022/12/15 07:51:49;;;;;;;3.78;1.98;;;;;;;;;;5005681;28;20038;-73
2022/12/15 07:54:16;;;;;;;4.63;2.20;;;;;;;;;;5011106;28;20016;-73
2022/12/15 07:56:42;;;;;;;4.40;2.40;;;;;;;;;;5010297;28;20033;-72
2022/12/15 07:59:08;;;;;;;2.08;1.70;;;;;;;;;;5008859;28;20020;-73
2022/12/15 08:01:35;;;;;;;7.43;2.30;;;;;;;;;;5030099;28;20028;-73
2022/12/15 08:04:01;;;;;;;3.13;1.98;;;;;;;;;;5018981;28;20435;-72
2022/12/15 08:06:27;;;;;;;7.18;3.80;;;;;;;;;;5009564;28;20021;-73
2022/12/15 08:08:54;;;;;;;6.18;3.75;;;;;;;;;;5010583;28;20037;-72
2022/12/15 08:11:23;;;;;;;3.58;2.38;;;;;;;;;;5009727;28;20033;-72
2022/12/15 08:13:50;;;;;;;11.63;5.80;;;;;;;;;;5009704;28;20421;-72
2022/12/15 08:16:16;;;;;;;4.55;2.90;;;;;;;;;;5008330;28;20028;-72
2022/12/15 08:18:42;;;;;;;5.30;2.53;;;;;;;;;;5008212;28;20029;-73
2022/12/15 08:21:09;;;;;;;3.90;2.63;;;;;;;;;;5008113;28;20022;-73
2022/12/15 08:23:36;;;;;;;9.68;2.45;;;;;;;;;;5011876;28;20029;-72
2022/12/15 08:26:04;;;;;;;7.70;2.45;;;;;;;;;;5012618;28;20424;-72
2022/12/15 08:28:31;;;;;;;9.02;2.47;;;;;;;;;;5011664;28;20014;-72
2022/12/15 08:31:08;;;;;;;6.35;2.35;;;;;;;;;;5013184;28;20087;-73
2022/12/15 08:33:35;;;;;;;7.53;4.15;;;;;;;;;;5011635;28;20030;-73
2022/12/15 08:36:02;;;;;;;7.05;2.40;;;;;;;;;;5012673;28;20036;-73
2022/12/15 08:38:30;;;;;;;5.82;2.15;;;;;;;;;;5013096;28;20045;-73
2022/12/15 08:40:56;;;;;;;4.20;1.98;;;;;;;;;;5011639;28;20026;-72
2022/12/15 08:43:23;;;;;;;3.08;2.30;;;;;;;;;;5011318;28;20405;-73
2022/12/15 08:45:49;;;;;;;4.07;2.17;;;;;;;;;;5012511;28;20034;-73
2022/12/15 08:48:16;;;;;;;3.85;2.10;;;;;;;;;;5012788;28;20389;-71
2022/12/15 08:50:43;;;;;;;5.43;2.20;;;;;;;;;;5012981;28;20471;-72
2022/12/15 08:53:10;;;;;;;4.20;2.20;;;;;;;;;;5012331;28;20026;-72
2022/12/15 08:55:36;;;;;;;4.18;2.30;;;;;;;;;;5011924;28;20028;-72
2022/12/15 08:58:03;;;;;;;7.10;2.90;;;;;;;;;;5011642;28;20036;-72
2022/12/15 09:00:29;;;;;;;5.72;2.50;;;;;;;;;;5012087;28;20029;-73
2022/12/15 09:02:55;;;;;;;5.63;2.25;;;;;;;;;;5011689;28;20516;-71
2022/12/15 09:05:22;;;;;;;6.53;2.17;;;;;;;;;;5012415;28;20030;-72
2022/12/15 09:07:48;;;;;;;6.80;2.58;;;;;;;;;;5012211;28;20577;-72
2022/12/15 09:10:14;;;;;;;3.22;2.40;;;;;;;;;;5012184;28;20040;-72
2022/12/15 09:12:41;;;;;;;6.82;2.60;;;;;;;;;;5010162;28;20030;-72
2022/12/15 09:15:07;;;;;;;5.90;3.50;;;;;;;;;;5011638;28;20068;-70
2022/12/15 09:17:33;;;;;;;7.25;4.38;;;;;;;;;;5010822;28;20033;-72
2022/12/15 09:20:00;;;;;;;5.20;3.15;;;;;;;;;;5012013;28;20595;-72
2022/12/15 09:22:26;;;;;;;5.05;3.00;;;;;;;;;;5011551;28;20068;-72
2022/12/15 09:24:53;;;;;;;7.78;2.75;;;;;;;;;;5011009;28;20547;-71
2022/12/15 09:27:19;;;;;;;3.40;2.50;;;;;;;;;;5010549;28;20029;-72
2022/12/15 09:29:46;;;;;;;7.28;3.78;;;;;;;;;;5012448;28;20032;-71
2022/12/15 09:32:13;;;;;;;5.53;2.60;;;;;;;;;;5011265;28;20049;-71
2022/12/15 09:34:39;;;;;;;4.40;1.65;;;;;;;;;;5011910;28;20471;-72
2022/12/15 09:37:06;;;;;;;2.95;1.70;;;;;;;;;;5012407;28;20502;-71
2022/12/15 09:39:32;;;;;;;6.75;2.97;;;;;;;;;;5011294;28;20111;-72
2022/12/15 09:41:59;;;;;;;4.78;2.97;;;;;;;;;;5011485;28;20026;-72
2022/12/15 09:44:26;;;;;;;2.55;1.85;;;;;;;;;;5012199;28;20018;-72
2022/12/15 09:46:53;;;;;;;4.10;2.50;;;;;;;;;;5012242;28;20028;-72
2022/12/15 09:49:33;;;;;;;4.32;2.17;;;;;;;;;;5011901;28;20057;-72
2022/12/15 09:52:25;;;;;;;4.03;2.35;;;;;;;;;;5010451;28;20025;-72
2022/12/15 09:54:52;;;;;;;5.60;2.33;;;;;;;;;;5008886;28;20390;-72
2022/12/15 09:57:33;;;;;;;6.28;3.28;;;;;;;;;;5012019;28;20026;-72
2022/12/15 10:00:05;;;;;;;3.88;2.50;;;;;;;;;;5011929;28;20079;-73
2022/12/15 10:02:31;;;;;;;7.88;4.35;;;;;;;;;;5011512;28;20026;-73
2022/12/15 10:05:05;;;;;;;9.15;5.38;;;;;;;;;;5015180;28;20071;-72
2022/12/15 10:07:39;;;;;;;9.13;5.55;;;;;;;;;;5017001;28;20869;-73
2022/12/15 10:10:22;;;;;;;7.20;3.97;;;;;;;;;;5020838;28;20025;-72
2022/12/15 10:12:50;;;;;;;8.05;4.78;;;;;;;;;;5031918;28;20053;-72
2022/12/15 10:15:22;;;;;;;8.32;4.40;;;;;;;;;;5012112;28;20032;-72
2022/12/15 10:17:48;;;;;;;5.47;2.60;;;;;;;;;;5014719;28;20437;-73
2022/12/15 10:20:19;;;;;;;4.60;2.65;;;;;;;;;;5012902;28;20024;-72
2022/12/15 10:22:46;;;;;;;4.07;2.08;;;;;;;;;;5010890;28;20038;-73
2022/12/15 10:25:17;;;;;;;6.28;1.90;;;;;;;;;;5014467;28;20021;-72
2022/12/15 10:27:53;;;;;;;5.40;2.75;;;;;;;;;;5011168;28;20040;-72
2022/12/15 10:30:19;;;;;;;6.22;2.90;;;;;;;;;;5011087;28;20033;-72
2022/12/15 10:32:50;;;;;;;7.55;3.88;;;;;;;;;;5010374;28;20032;-72
2022/12/15 10:35:20;;;;;;;8.70;4.70;;;;;;;;;;5009590;28;20021;-71
2022/12/15 10:37:46;;;;;;;8.82;5.05;;;;;;;;;;5011152;28;20044;-72
2022/12/15 10:40:25;;;;;;;9.30;5.13;;;;;;;;;;5010927;28;20036;-72
2022/12/15 10:42:51;;;;;;;8.77;3.55;;;;;;;;;;5010386;28;20028;-72
2022/12/15 10:45:34;;;;;;;13.48;9.25;;;;;;;;;;5009820;28;20390;-72
2022/12/15 10:48:05;;;;;;;16.00;9.70;;;;;;;;;;5011304;28;20501;-72
2022/12/15 10:50:31;;;;;;;;;;;;;;;;;;5010722;28;20032;-72
2022/12/15 10:52:58;;;;;;;7.43;5.00;;;;;;;;;;5010021;28;20004;-72
2022/12/15 10:55:42;;;;;;;3.60;2.20;;;;;;;;;;5011926;28;20014;-72
2022/12/15 10:58:19;;;;;;;10.65;7.13;;;;;;;;;;5011220;28;20493;-72
2022/12/15 11:00:46;;;;;;;4.03;3.00;;;;;;;;;;5009916;28;20030;-72
2022/12/15 11:03:23;;;;;;;8.57;5.15;;;;;;;;;;5010890;28;20028;-72
2022/12/15 11:05:53;;;;;;;16.35;10.50;;;;;;;;;;5010559;28;20022;-72
2022/12/15 11:08:21;;;;;;;24.00;12.98;;;;;;;;;;5011969;28;20038;-72
2022/12/15 11:13:35;;;;;;;8.32;5.65;;;;;;;;;;5010875;28;20034;-72
2022/12/15 11:16:31;;;;;;;4.72;3.08;;;;;;;;;;5011314;28;20018;-72
2022/12/15 11:19:26;;;;;;;4.00;2.50;;;;;;;;;;5002822;28;20071;-72
2022/12/15 11:21:55;;;;;;;6.38;3.15;;;;;;;;;;4969113;28;20042;-72
2022/12/15 11:24:30;;;;;;;8.23;3.47;;;;;;;;;;4969652;28;20027;-72
2022/12/15 11:27:08;;;;;;;10.48;5.03;;;;;;;;;;4969811;28;20039;-72
2022/12/15 11:29:37;;;;;;;18.20;7.60;;;;;;;;;;4969828;28;20035;-72
2022/12/15 11:32:04;;;;;;;42.35;21.45;;;;;;;;;;4968925;28;20038;-72
2022/12/15 11:34:36;;;;;;;31.15;17.50;;;;;;;;;;4969227;28;20053;-72
2022/12/15 11:37:02;;;;;;;16.60;8.60;;;;;;;;;;4969517;28;20043;-72
2022/12/15 11:39:44;;;;;;;14.70;7.90;;;;;;;;;;4953679;28;20043;-72
2022/12/15 11:42:22;;;;;;;13.63;7.97;;;;;;;;;;4969401;28;20097;-72
2022/12/15 11:45:03;;;;;;;9.90;5.95;;;;;;;;;;4970101;28;20150;-72
2022/12/15 11:48:00;;;;;;;9.25;5.18;;;;;;;;;;4970355;28;20022;-72
2022/12/15 11:50:29;;;;;;;7.75;5.53;;;;;;;;;;4959158;28;20403;-72
2022/12/15 11:53:14;;;;;;;10.93;7.03;;;;;;;;;;4970267;28;20057;-72
2022/12/15 11:55:55;;;;;;;8.50;5.95;;;;;;;;;;4970874;28;20030;-72
2022/12/15 11:58:22;;;;;;;8.95;6.07;;;;;;;;;;4996084;28;20041;-72
2022/12/15 12:00:54;;;;;;;9.48;6.68;;;;;;;;;;5015539;28;20494;-72
2022/12/15 12:03:21;;;;;;;12.95;8.85;;;;;;;;;;5015209;28;20025;-72
2022/12/15 12:05:50;;;;;;;15.02;10.20;;;;;;;;;;5015111;28;20548;-72
2022/12/15 12:08:19;;;;;;;15.20;10.40;;;;;;;;;;5015745;28;20025;-72
2022/12/15 12:10:46;;;;;;;17.80;12.57;;;;;;;;;;5015230;28;20038;-72
2022/12/15 12:13:21;;;;;;;16.88;12.23;;;;;;;;;;5015375;28;20034;-73
2022/12/15 12:16:08;;;;;;;20.63;11.65;;;;;;;;;;5015369;28;20017;-72
2022/12/15 12:18:45;;;;;;;17.48;12.80;;;;;;;;;;5009715;28;20041;-72
2022/12/15 12:21:16;;;;;;;19.00;12.82;;;;;;;;;;5012843;28;20486;-73
2022/12/15 12:23:48;;;;;;;15.30;11.18;;;;;;;;;;5012601;28;20025;-72
2022/12/15 12:26:17;;;;;;;13.93;9.90;;;;;;;;;;5006597;28;20038;-73
2022/12/15 12:28:49;;;;;;;12.43;9.23;;;;;;;;;;5010848;28;20033;-67
2022/12/15 12:31:23;;;;;;;15.60;9.48;;;;;;;;;;5012055;28;20036;-76
2022/12/15 12:33:50;;;;;;;14.30;10.55;;;;;;;;;;5011419;28;20040;-72
2022/12/15 12:36:17;;;;;;;18.08;11.85;;;;;;;;;;5013553;28;20014;-72
2022/12/15 12:38:47;;;;;;;30.05;19.00;;;;;;;;;;5010461;28;20502;-72
2022/12/15 12:41:13;;;;;;;22.23;14.77;;;;;;;;;;5011975;28;20401;-71
2022/12/15 12:43:42;;;;;;;26.48;17.88;;;;;;;;;;5010710;28;20080;-72
2022/12/15 12:46:24;;;;;;;18.45;12.80;;;;;;;;;;5013016;28;20037;-72
2022/12/15 12:48:54;;;;;;;14.98;10.68;;;;;;;;;;5007140;28;20055;-71
2022/12/15 12:51:21;;;;;;;18.88;11.93;;;;;;;;;;5011037;28;20079;-72
2022/12/15 12:53:47;;;;;;;19.05;12.35;;;;;;;;;;5012708;28;20146;-72
2022/12/15 12:56:29;;;;;;;16.70;10.85;;;;;;;;;;5010681;28;20029;-73
2022/12/15 12:58:55;;;;;;;15.10;11.52;;;;;;;;;;5001516;28;20490;-72
2022/12/15 13:01:31;;;;;;;21.23;14.35;;;;;;;;;;5013920;28;20017;-72
2022/12/15 13:04:06;;;;;;;17.33;12.30;;;;;;;;;;5017053;28;20018;-72
2022/12/15 13:06:35;;;;;;;13.25;10.13;;;;;;;;;;5012545;28;20025;-72
2022/12/15 13:09:17;;;;;;;13.30;9.25;;;;;;;;;;5014257;28;20018;-72
2022/12/15 13:11:44;;;;;;;11.88;8.40;;;;;;;;;;5017767;28;20482;-73
2022/12/15 13:14:13;;;;;;;10.38;8.30;;;;;;;;;;5012182;28;20043;-73
2022/12/15 13:16:40;;;;;;;9.35;7.50;;;;;;;;;;5013360;28;20022;-72
2022/12/15 13:19:07;;;;;;;11.13;7.85;;;;;;;;;;5013709;28;20068;-72
2022/12/15 13:21:43;;;;;;;12.00;8.70;;;;;;;;;;5014606;28;20421;-72
2022/12/15 13:24:28;;;;;;;11.40;8.43;;;;;;;;;;5011820;28;20041;-72
2022/12/15 13:27:25;;;;;;;9.98;7.00;;;;;;;;;;5011005;28;20556;-72
2022/12/15 13:29:55;;;;;;;9.38;6.85;;;;;;;;;;5004522;28;20030;-72
2022/12/15 13:32:33;;;;;;;9.77;7.78;;;;;;;;;;5011527;28;20049;-72
2022/12/15 13:35:03;;;;;;;11.57;9.23;;;;;;;;;;5013891;28;20038;-72
2022/12/15 13:37:50;;;;;;;12.07;9.05;;;;;;;;;;5016818;28;20048;-72
2022/12/15 13:40:23;;;;;;;7.18;5.45;;;;;;;;;;5012805;28;20038;-73
2022/12/15 13:43:15;;;;;;;10.73;6.53;;;;;;;;;;5011053;28;20028;-73
2022/12/15 13:45:44;;;;;;;8.98;6.93;;;;;;;;;;4955387;28;20046;-73
2022/12/15 13:48:19;;;;;;;10.45;7.10;;;;;;;;;;4937113;29;20039;-72
2022/12/15 13:50:52;;;;;;;9.63;6.85;;;;;;;;;;4953232;28;20040;-72
2022/12/15 13:53:21;;;;;;;7.53;5.93;;;;;;;;;;4950872;28;20053;-73
2022/12/15 13:55:55;;;;;;;9.80;7.03;;;;;;;;;;4955491;28;20041;-72
2022/12/15 13:58:23;;;;;;;12.93;7.60;;;;;;;;;;4951018;29;20043;-72
2022/12/15 14:00:54;;;;;;;8.77;6.35;;;;;;;;;;4950773;29;20108;-73
2022/12/15 14:03:20;;;;;;;9.43;5.57;;;;;;;;;;4950511;28;20518;-72
2022/12/15 14:05:48;;;;;;;7.13;5.47;;;;;;;;;;4958678;28;20042;-73
2022/12/15 14:08:16;;;;;;;6.78;5.07;;;;;;;;;;4953304;28;20408;-73
2022/12/15 14:10:44;;;;;;;6.88;5.00;;;;;;;;;;4950380;28;20049;-73
2022/12/15 14:13:19;;;;;;;5.47;4.18;;;;;;;;;;4957205;28;20047;-73
2022/12/15 14:15:48;;;;;;;6.55;4.70;;;;;;;;;;4964086;28;20035;-72
2022/12/15 14:18:32;;;;;;;4.85;4.00;;;;;;;;;;4951212;29;20144;-72
2022/12/15 14:21:00;;;;;;;5.78;3.95;;;;;;;;;;4949613;28;20039;-72
2022/12/15 14:23:27;;;;;;;6.40;4.65;;;;;;;;;;5003839;28;20041;-73
2022/12/15 14:25:53;;;;;;;6.38;4.90;;;;;;;;;;5011290;28;20034;-73
2022/12/15 14:28:29;;;;;;;6.75;5.32;;;;;;;;;;5010806;28;20021;-72
2022/12/15 14:30:57;;;;;;;6.30;5.05;;;;;;;;;;5010020;28;20030;-73
2022/12/15 14:33:24;;;;;;;8.30;5.68;;;;;;;;;;5011408;28;20030;-73
2022/12/15 14:35:54;;;;;;;8.80;5.97;;;;;;;;;;5009880;28;20034;-73
2022/12/15 14:38:22;;;;;;;15.65;10.60;;;;;;;;;;5011145;28;20052;-73
2022/12/15 14:40:49;;;;;;;15.77;10.07;;;;;;;;;;5010906;28;20030;-73
2022/12/15 14:43:27;;;;;;;12.23;8.18;;;;;;;;;;5010918;28;20387;-72
2022/12/15 14:45:55;;;;;;;10.75;7.60;;;;;;;;;;5010616;28;20498;-72
2022/12/15 14:48:29;;;;;;;15.98;10.80;;;;;;;;;;5010703;28;20482;-72
2022/12/15 14:50:58;;;;;;;17.05;10.68;;;;;;;;;;5010483;28;20429;-72
2022/12/15 14:53:25;;;;;;;17.83;10.65;;;;;;;;;;5011201;28;20037;-72
2022/12/15 14:55:51;;;;;;;13.93;9.40;;;;;;;;;;5009956;28;20386;-73
2022/12/15 14:58:34;;;;;;;11.95;7.57;;;;;;;;;;5009858;28;20033;-72
2022/12/15 15:01:01;;;;;;;12.20;8.13;;;;;;;;;;5009534;28;20018;-72
2022/12/15 15:03:38;;;;;;;9.70;6.38;;;;;;;;;;5010732;28;20036;-72
2022/12/15 15:06:10;;;;;;;14.82;8.60;;;;;;;;;;5010285;28;20390;-72
2022/12/15 15:08:46;;;;;;;10.48;7.07;;;;;;;;;;5011541;28;20028;-73
2022/12/15 15:11:30;;;;;;;9.73;7.07;;;;;;;;;;5010446;28;20032;-73
2022/12/15 15:14:02;;;;;;;12.13;7.60;;;;;;;;;;5009915;28;20491;-71
2022/12/15 15:16:29;;;;;;;14.55;8.15;;;;;;;;;;5010815;28;20470;-72
2022/12/15 15:18:56;;;;;;;11.80;8.43;;;;;;;;;;5009934;28;20040;-72
2022/12/15 15:21:23;;;;;;;11.48;8.38;;;;;;;;;;5010729;28;20042;-73
2022/12/15 15:24:04;;;;;;;13.00;9.68;;;;;;;;;;5009353;28;20036;-72
2022/12/15 15:26:30;;;;;;;18.27;11.70;;;;;;;;;;5010295;28;20034;-73
2022/12/15 15:28:57;;;;;;;14.48;8.75;;;;;;;;;;5010023;28;20026;-73
2022/12/15 15:31:37;;;;;;;12.60;8.52;;;;;;;;;;5010112;28;20040;-73
2022/12/15 15:34:05;;;;;;;18.60;11.55;;;;;;;;;;5029756;28;20076;-72
2022/12/15 15:36:32;;;;;;;14.90;10.27;;;;;;;;;;5014452;28;20096;-72
2022/12/15 15:38:59;;;;;;;17.88;12.23;;;;;;;;;;5013973;28;20054;-72
2022/12/15 15:41:28;;;;;;;16.02;10.75;;;;;;;;;;5013574;28;20268;-73
2022/12/15 15:43:55;;;;;;;34.13;18.40;;;;;;;;;;5014316;28;20034;-72
2022/12/15 15:46:24;;;;;;;37.03;20.10;;;;;;;;;;5013059;28;20034;-73
2022/12/15 15:48:52;;;;;;;33.38;19.17;;;;;;;;;;5013178;28;20079;-73
2022/12/15 15:51:19;;;;;;;47.17;26.75;;;;;;;;;;5013515;28;20032;-73
2022/12/15 15:53:46;;;;;;;21.42;13.15;;;;;;;;;;5015136;28;20045;-73
2022/12/15 15:56:14;;;;;;;46.08;27.70;;;;;;;;;;5014101;28;20017;-75
2022/12/15 15:58:42;;;;;;;57.47;31.67;;;;;;;;;;5014149;28;20029;-74
2022/12/15 16:01:09;;;;;;;69.85;37.05;;;;;;;;;;5012492;28;20037;-71
2022/12/15 16:03:35;;;;;;;35.70;21.92;;;;;;;;;;5014140;28;20045;-69
2022/12/15 16:06:05;;;;;;;32.85;20.63;;;;;;;;;;5013743;28;20056;-70
2022/12/15 16:08:34;;;;;;;33.05;21.85;;;;;;;;;;5014237;28;20032;-69
2022/12/15 16:11:00;;;;;;;33.78;22.42;;;;;;;;;;5015219;28;20033;-69
2022/12/15 16:13:27;;;;;;;39.28;23.83;;;;;;;;;;5014130;28;20520;-69
2022/12/15 16:15:53;;;;;;;40.67;25.38;;;;;;;;;;5015006;28;20018;-69
2022/12/15 16:18:20;;;;;;;43.40;27.67;;;;;;;;;;5014807;28;20075;-69
2022/12/15 16:20:49;;;;;;;38.95;26.75;;;;;;;;;;5014796;28;20577;-70
2022/12/15 16:23:23;;;;;;;36.08;24.80;;;;;;;;;;5013373;28;20036;-69
2022/12/15 16:25:54;;;;;;;42.10;27.55;;;;;;;;;;5014874;28;20018;-70
2022/12/15 16:28:22;;;;;;;39.65;25.35;;;;;;;;;;5014273;28;20033;-69
2022/12/15 16:30:49;;;;;;;34.13;22.70;;;;;;;;;;5014441;28;20474;-74
2022/12/15 16:33:16;;;;;;;33.47;23.02;;;;;;;;;;5014459;28;20040;-76
2022/12/15 16:35:43;;;;;;;42.63;26.83;;;;;;;;;;5014709;28;20076;-75
2022/12/15 16:38:29;;;;;;;47.72;27.77;;;;;;;;;;5013961;28;20045;-72
2022/12/15 16:40:56;;;;;;;31.67;22.17;;;;;;;;;;5011084;28;20505;-71
2022/12/15 16:43:24;;;;;;;34.45;21.85;;;;;;;;;;5013846;28;20397;-72
2022/12/15 16:45:51;;;;;;;66.63;34.33;;;;;;;;;;5014120;28;20030;-71
2022/12/15 16:48:17;;;;;;;55.03;31.10;;;;;;;;;;5014730;28;20037;-71
2022/12/15 16:50:49;;;;;;;61.55;41.30;;;;;;;;;;5014724;28;20036;-71
2022/12/15 16:53:17;;;;;;;55.72;36.58;;;;;;;;;;5014578;28;20517;-71
2022/12/15 16:55:44;;;;;;;44.47;30.27;;;;;;;;;;5013109;28;20028;-72
2022/12/15 16:58:13;;;;;;;31.27;21.02;;;;;;;;;;5014572;28;20026;-72
2022/12/15 17:00:40;;;;;;;24.98;18.20;;;;;;;;;;5014580;28;20124;-71
2022/12/15 17:03:10;;;;;;;10.55;7.55;;;;;;;;;;5013751;28;20040;-71
2022/12/15 17:05:36;;;;;;;11.13;7.30;;;;;;;;;;5013957;28;20398;-71
2022/12/15 17:08:05;;;;;;;15.07;9.20;;;;;;;;;;5012734;28;20040;-71
2022/12/15 17:10:32;;;;;;;12.45;8.93;;;;;;;;;;5014015;28;20105;-71